Time;durP1;ratioP1;P1;durP2;ratioP2;P2;SDS_P1;SDS_P2;PMS_P1;PMS_P2;Temp;Humidity;BMP_temperature;BMP_pressure;BME280_temperature;BME280_humidity;BME280_pressure;Samples;Min_cycle;Max_cycle;Signal;HPM_P1;HPM_P2
2020/12/27 00:01:20;;;;;;;12.17;6.90;;;0.50;92.30;;;;;;6225082;28;20049;-75
2020/12/27 00:04:22;;;;;;;6.57;5.83;;;0.50;92.10;;;;;;6224938;28;20867;-75
2020/12/27 00:07:23;;;;;;;8.30;6.13;;;0.50;92.00;;;;;;6225599;28;20136;-74
2020/12/27 00:10:24;;;;;;;10.13;6.40;;;0.50;92.10;;;;;;6225005;28;20054;-75
2020/12/27 00:13:26;;;;;;;9.23;6.90;;;0.50;91.80;;;;;;6224799;28;20124;-74
2020/12/27 00:16:28;;;;;;;12.20;6.00;;;0.50;92.00;;;;;;6224965;28;20388;-74
2020/12/27 00:19:29;;;;;;;8.07;6.47;;;0.50;91.70;;;;;;6225101;28;20049;-74
2020/12/27 00:22:30;;;;;;;12.43;6.50;;;0.50;91.80;;;;;;6224851;28;20516;-74
2020/12/27 00:25:32;;;;;;;10.60;5.93;;;0.50;92.00;;;;;;6224195;28;20439;-74
2020/12/27 00:28:34;;;;;;;8.20;6.53;;;0.40;91.80;;;;;;6224650;28;20046;-75
2020/12/27 00:31:35;;;;;;;10.23;6.17;;;0.40;91.80;;;;;;6224914;28;20123;-74
2020/12/27 00:34:38;;;;;;;7.13;5.87;;;0.40;91.70;;;;;;6224143;28;20041;-75
2020/12/27 00:37:39;;;;;;;6.70;5.83;;;0.40;91.70;;;;;;6224251;28;20069;-74
2020/12/27 00:40:40;;;;;;;10.00;6.13;;;0.40;91.50;;;;;;6224495;28;20049;-74
2020/12/27 00:43:42;;;;;;;9.97;6.30;;;0.40;91.60;;;;;;6224471;28;20097;-74
2020/12/27 00:46:48;;;;;;;9.43;6.17;;;0.40;91.40;;;;;;6224337;28;20049;-74
2020/12/27 00:49:49;;;;;;;11.53;5.60;;;0.40;91.30;;;;;;6224552;28;20057;-74
2020/12/27 00:52:50;;;;;;;8.57;5.50;;;0.40;91.40;;;;;;6225192;28;20090;-74
2020/12/27 00:55:51;;;;;;;7.50;5.40;;;0.40;91.30;;;;;;6224399;28;20049;-74
2020/12/27 00:58:54;;;;;;;7.90;6.30;;;0.40;91.30;;;;;;6223558;28;20105;-74
2020/12/27 01:01:55;;;;;;;9.60;6.20;;;0.40;91.30;;;;;;6224367;28;20053;-74
2020/12/27 01:04:56;;;;;;;6.33;5.03;;;0.40;91.30;;;;;;6224025;28;20571;-74
2020/12/27 01:07:58;;;;;;;10.07;5.63;;;0.40;91.20;;;;;;6224380;28;20057;-74
2020/12/27 01:11:00;;;;;;;10.43;5.97;;;0.40;91.20;;;;;;6224720;28;20049;-74
2020/12/27 01:14:02;;;;;;;16.37;6.40;;;0.40;91.20;;;;;;6223389;28;20041;-74
2020/12/27 01:17:03;;;;;;;7.47;5.83;;;0.50;91.10;;;;;;6223258;28;20411;-74
2020/12/27 01:20:05;;;;;;;7.97;5.57;;;0.50;90.90;;;;;;6223759;28;20084;-74
2020/12/27 01:23:06;;;;;;;6.80;4.77;;;0.50;90.80;;;;;;6223493;28;20053;-74
2020/12/27 01:26:07;;;;;;;8.80;5.90;;;0.50;90.60;;;;;;6222845;28;20129;-74
2020/12/27 01:29:09;;;;;;;6.37;5.63;;;0.50;90.60;;;;;;6223822;28;20050;-74
2020/12/27 01:32:10;;;;;;;6.53;4.90;;;0.60;90.40;;;;;;6222824;28;20046;-75
2020/12/27 01:35:12;;;;;;;10.43;5.67;;;0.60;90.30;;;;;;6223271;28;20531;-75
2020/12/27 01:38:14;;;;;;;6.87;4.87;;;0.60;90.20;;;;;;6222582;28;20053;-74
2020/12/27 01:41:15;;;;;;;7.07;4.83;;;0.70;90.30;;;;;;6222735;28;20057;-74
2020/12/27 01:44:17;;;;;;;7.33;5.10;;;0.70;90.00;;;;;;6222355;28;20056;-74
2020/12/27 01:47:21;;;;;;;8.33;4.63;;;0.70;89.70;;;;;;6223290;28;20136;-74
2020/12/27 01:50:23;;;;;;;9.47;5.13;;;0.80;89.10;;;;;;6222726;28;20045;-74
2020/12/27 01:53:24;;;;;;;8.87;5.87;;;0.80;89.20;;;;;;6221248;28;20069;-74
2020/12/27 01:56:33;;;;;;;7.17;5.30;;;0.80;88.80;;;;;;6222217;28;20065;-74
2020/12/27 01:59:35;;;;;;;7.80;5.50;;;0.80;88.30;;;;;;6222995;28;20496;-74
2020/12/27 02:02:37;;;;;;;9.97;4.23;;;0.80;88.00;;;;;;6222026;28;20046;-74
2020/12/27 02:05:41;;;;;;;5.67;4.63;;;0.80;87.50;;;;;;6222197;28;20042;-74
2020/12/27 02:08:45;;;;;;;8.03;5.90;;;0.80;87.60;;;;;;6221949;28;20056;-74
2020/12/27 02:11:46;;;;;;;6.13;4.10;;;0.80;87.70;;;;;;6221260;28;20582;-74
2020/12/27 02:14:53;;;;;;;6.63;4.33;;;0.80;87.80;;;;;;6221268;28;20100;-74
2020/12/27 02:17:54;;;;;;;8.13;4.33;;;0.90;87.60;;;;;;6222173;28;20049;-74
2020/12/27 02:20:55;;;;;;;6.37;4.67;;;0.90;87.50;;;;;;6222096;28;20080;-74
2020/12/27 02:23:58;;;;;;;5.53;4.20;;;0.90;87.50;;;;;;6221753;28;20518;-74
2020/12/27 02:27:00;;;;;;;8.40;5.93;;;0.90;87.10;;;;;;6221769;28;20050;-74
2020/12/27 02:30:01;;;;;;;7.13;4.57;;;0.90;87.50;;;;;;6221733;28;20435;-74
2020/12/27 02:33:03;;;;;;;8.37;3.67;;;0.90;87.80;;;;;;6221986;28;20108;-74
2020/12/27 02:36:04;;;;;;;7.83;4.33;;;0.90;87.90;;;;;;6221800;28;20502;-74
2020/12/27 02:39:10;;;;;;;6.63;3.87;;;0.90;88.10;;;;;;6221549;28;20496;-74
2020/12/27 02:42:11;;;;;;;5.40;3.90;;;0.90;88.30;;;;;;6221611;28;20133;-74
2020/12/27 02:45:12;;;;;;;7.37;4.20;;;0.90;88.20;;;;;;6220829;28;20052;-74
2020/12/27 02:48:14;;;;;;;5.80;3.63;;;0.90;88.80;;;;;;6220957;28;20068;-73
2020/12/27 02:51:15;;;;;;;9.27;5.60;;;0.90;89.00;;;;;;6222251;28;20137;-74
2020/12/27 02:54:17;;;;;;;4.73;3.97;;;0.90;88.90;;;;;;6220662;28;20046;-73
2020/12/27 02:57:19;;;;;;;6.50;4.87;;;0.90;89.00;;;;;;6221406;28;20046;-74
2020/12/27 03:00:20;;;;;;;9.53;4.57;;;0.90;89.10;;;;;;6221995;28;20045;-74
2020/12/27 03:03:22;;;;;;;10.73;4.80;;;0.90;89.10;;;;;;6221128;28;20053;-74
2020/12/27 03:06:23;;;;;;;5.53;4.57;;;0.90;89.00;;;;;;6224201;28;20155;-74
2020/12/27 03:09:25;;;;;;;5.70;4.40;;;0.90;88.90;;;;;;6224441;28;20048;-74
2020/12/27 03:12:26;;;;;;;6.07;5.20;;;0.90;89.20;;;;;;6221132;28;20124;-73
2020/12/27 03:15:28;;;;;;;8.77;4.87;;;0.90;89.20;;;;;;6220612;28;20050;-74
2020/12/27 03:18:29;;;;;;;8.07;5.33;;;0.90;89.30;;;;;;6221316;28;20136;-74
2020/12/27 03:21:30;;;;;;;9.20;5.23;;;0.90;88.80;;;;;;6220402;28;20081;-74
2020/12/27 03:24:32;;;;;;;6.60;4.63;;;0.90;89.00;;;;;;6220661;28;20107;-74
2020/12/27 03:27:34;;;;;;;7.00;5.07;;;0.90;88.40;;;;;;6221642;28;20058;-74
2020/12/27 03:30:35;;;;;;;7.77;4.90;;;0.90;88.30;;;;;;6221263;28;20419;-74
2020/12/27 03:33:37;;;;;;;6.27;4.93;;;1.00;87.90;;;;;;6221793;28;20129;-74
2020/12/27 03:36:38;;;;;;;6.37;5.67;;;1.00;87.70;;;;;;6222021;28;20038;-74
2020/12/27 03:39:40;;;;;;;9.80;4.03;;;1.00;87.20;;;;;;6222461;28;20057;-73
2020/12/27 03:42:42;;;;;;;8.13;5.00;;;1.00;87.10;;;;;;6221785;28;20046;-73
2020/12/27 03:45:43;;;;;;;11.10;4.30;;;1.00;87.00;;;;;;6222755;28;20535;-74
2020/12/27 03:48:44;;;;;;;9.87;5.20;;;1.10;87.20;;;;;;6253868;28;20033;-73
2020/12/27 03:51:45;;;;;;;5.10;4.47;;;1.10;86.60;;;;;;6254542;28;20026;-74
2020/12/27 03:54:48;;;;;;;6.23;3.93;;;1.10;86.30;;;;;;6252779;28;20038;-73
2020/12/27 03:57:49;;;;;;;7.40;4.47;;;1.10;86.20;;;;;;6253254;28;20048;-73
2020/12/27 04:00:50;;;;;;;8.13;4.43;;;1.10;86.70;;;;;;6253392;28;20030;-74
2020/12/27 04:03:52;;;;;;;7.83;3.80;;;;;;;;;;6252937;28;20089;-73
2020/12/27 04:06:53;;;;;;;7.63;4.70;;;1.10;86.00;;;;;;6251996;28;20077;-73
2020/12/27 04:09:55;;;;;;;6.77;4.63;;;1.10;86.10;;;;;;6226035;28;20057;-73
2020/12/27 04:12:56;;;;;;;6.77;4.40;;;1.10;86.00;;;;;;6221718;28;20045;-74
2020/12/27 04:16:01;;;;;;;5.43;3.33;;;1.10;85.90;;;;;;6221062;28;20064;-74
2020/12/27 04:19:02;;;;;;;6.60;3.63;;;1.10;85.90;;;;;;6221141;28;20045;-74
2020/12/27 04:22:04;;;;;;;9.60;3.17;;;1.10;86.00;;;;;;6220953;28;20156;-74
2020/12/27 04:25:06;;;;;;;4.83;3.37;;;1.10;86.20;;;;;;6220618;28;20420;-74
2020/12/27 04:28:07;;;;;;;5.90;2.97;;;1.10;86.40;;;;;;6221079;28;20046;-75
2020/12/27 04:31:13;;;;;;;4.40;3.50;;;1.10;86.50;;;;;;6221329;28;20054;-74
2020/12/27 04:34:14;;;;;;;5.97;3.70;;;1.10;86.00;;;;;;6220794;28;20544;-74
2020/12/27 04:37:15;;;;;;;6.50;3.30;;;1.10;86.30;;;;;;6225146;28;20049;-74
2020/12/27 04:40:17;;;;;;;4.63;3.50;;;1.10;86.10;;;;;;6225294;28;20140;-74
2020/12/27 04:43:19;;;;;;;7.17;3.13;;;1.10;85.80;;;;;;6225598;28;20050;-74
2020/12/27 04:46:20;;;;;;;3.70;3.10;;;1.10;85.30;;;;;;6225203;28;20073;-74
2020/12/27 04:49:22;;;;;;;8.63;3.37;;;1.10;85.10;;;;;;6225334;28;20041;-74
2020/12/27 04:52:23;;;;;;;8.40;3.73;;;1.10;85.40;;;;;;6238713;28;20049;-74
2020/12/27 04:55:26;;;;;;;4.30;2.80;;;1.10;85.40;;;;;;6249475;28;20041;-74
2020/12/27 04:58:28;;;;;;;4.10;3.70;;;1.20;85.10;;;;;;6249011;28;20053;-74
2020/12/27 05:01:29;;;;;;;5.20;3.33;;;1.20;84.60;;;;;;6244593;28;20053;-74
2020/12/27 05:04:31;;;;;;;3.50;3.13;;;1.20;84.80;;;;;;6248678;28;20155;-74
2020/12/27 05:07:32;;;;;;;8.87;3.63;;;1.20;84.50;;;;;;6248575;28;20049;-74
2020/12/27 05:10:39;;;;;;;5.73;3.67;;;1.20;84.40;;;;;;6249209;28;20081;-74
2020/12/27 05:13:44;;;;;;;4.85;3.30;;;1.20;84.20;;;;;;6250897;28;20049;-74
2020/12/27 05:16:49;;;;;;;10.93;6.13;;;1.30;83.70;;;;;;6250448;28;20672;-74
2020/12/27 05:19:50;;;;;;;6.10;2.80;;;1.30;83.70;;;;;;6249777;28;20053;-74
2020/12/27 05:22:58;;;;;;;8.40;6.17;;;1.30;83.50;;;;;;6248732;28;20072;-74
2020/12/27 05:26:05;;;;;;;4.03;2.57;;;1.30;83.30;;;;;;6250458;28;20052;-74
2020/12/27 05:29:07;;;;;;;3.78;3.17;;;1.40;83.60;;;;;;6248703;28;20293;-74
2020/12/27 05:32:10;;;;;;;14.23;3.60;;;1.40;82.90;;;;;;6248199;28;20049;-74
2020/12/27 05:35:12;;;;;;;4.87;3.20;;;1.50;82.60;;;;;;6249963;28;20045;-74
2020/12/27 05:38:14;;;;;;;5.50;2.40;;;1.50;82.30;;;;;;6248136;28;20045;-74
2020/12/27 05:41:24;;;;;;;7.83;3.23;;;1.50;82.00;;;;;;6247900;28;20119;-74
2020/12/27 05:44:26;;;;;;;7.47;3.43;;;1.50;81.90;;;;;;6247611;28;20522;-74
2020/12/27 05:47:32;;;;;;;8.30;2.67;;;1.50;81.20;;;;;;6247532;28;20614;-74
2020/12/27 05:50:37;;;;;;;3.27;2.30;;;1.50;81.70;;;;;;6247614;28;20585;-73
2020/12/27 05:53:43;;;;;;;2.77;2.10;;;1.50;80.80;;;;;;6247349;28;20053;-74
2020/12/27 05:56:55;;;;;;;2.37;1.83;;;1.60;81.10;;;;;;6247402;28;20045;-74
2020/12/27 06:00:01;;;;;;;3.90;2.30;;;1.60;80.60;;;;;;6247763;28;20073;-74
2020/12/27 06:03:03;;;;;;;4.70;2.23;;;1.60;80.40;;;;;;6247949;28;20405;-74
2020/12/27 06:06:11;;;;;;;5.83;1.93;;;1.60;80.20;;;;;;6246977;28;20621;-73
2020/12/27 06:09:35;;;;;;;1.30;1.20;;;1.60;80.00;;;;;;6244963;28;20056;-74
2020/12/27 06:13:06;;;;;;;23.77;13.30;;;1.60;80.10;;;;;;6246780;28;20084;-75
2020/12/27 06:16:13;;;;;;;9.30;4.83;;;1.60;80.00;;;;;;6247017;28;20416;-74
2020/12/27 06:19:37;;;;;;;4.10;1.97;;;1.60;80.20;;;;;;6247674;28;20503;-75
2020/12/27 06:22:44;;;;;;;2.33;1.80;;;1.60;80.20;;;;;;6245969;28;20045;-74
2020/12/27 06:25:46;;;;;;;1.80;1.10;;;1.60;79.70;;;;;;6247148;28;20045;-74
2020/12/27 06:28:48;;;;;;;3.43;1.70;;;1.60;79.70;;;;;;6245660;28;20061;-74
2020/12/27 06:31:51;;;;;;;1.77;1.17;;;1.60;79.50;;;;;;6246878;28;20057;-74
2020/12/27 06:34:53;;;;;;;27.23;17.57;;;1.60;79.40;;;;;;6245374;28;20045;-74
2020/12/27 06:37:54;;;;;;;1.40;1.30;;;1.70;78.80;;;;;;6245395;28;20045;-74
2020/12/27 06:41:04;;;;;;;2.60;2.40;;;1.70;78.80;;;;;;6246000;28;20129;-74
2020/12/27 06:44:06;;;;;;;1.70;1.40;;;1.70;78.70;;;;;;6246186;28;20107;-74
2020/12/27 06:47:08;;;;;;;3.07;2.20;;;1.80;78.10;;;;;;6246024;28;20049;-74
2020/12/27 06:50:16;;;;;;;1.80;1.70;;;1.80;78.20;;;;;;6248159;28;20045;-74
2020/12/27 06:53:41;;;;;;;3.03;2.17;;;1.80;77.90;;;;;;6249467;28;20133;-75
2020/12/27 06:56:46;;;;;;;4.57;2.73;;;1.90;77.60;;;;;;6245369;28;20033;-74
2020/12/27 06:59:48;;;;;;;4.37;2.77;;;1.80;77.80;;;;;;6246438;28;20045;-75
2020/12/27 07:03:08;;;;;;;3.50;1.50;;;1.90;77.80;;;;;;6244719;28;20061;-74
2020/12/27 07:06:21;;;;;;;17.33;10.43;;;1.90;77.80;;;;;;6234774;28;20380;-74
2020/12/27 07:09:25;;;;;;;4.53;3.43;;;1.90;77.80;;;;;;6245648;28;20550;-75
2020/12/27 07:12:27;;;;;;;2.20;1.60;;;1.90;78.10;;;;;;6244847;28;20095;-74
2020/12/27 07:15:29;;;;;;;3.03;1.60;;;1.90;77.80;;;;;;6245421;28;20128;-74
2020/12/27 07:18:30;;;;;;;2.67;1.63;;;1.90;77.90;;;;;;6244938;28;20573;-74
2020/12/27 07:21:31;;;;;;;3.13;2.83;;;1.90;78.00;;;;;;6244827;28;20049;-74
2020/12/27 07:24:35;;;;;;;2.50;1.50;;;1.90;77.90;;;;;;6244958;28;20053;-74
2020/12/27 07:27:40;;;;;;;1.60;1.50;;;1.90;77.50;;;;;;6245302;28;20525;-74
2020/12/27 07:30:42;;;;;;;1.47;1.37;;;1.90;77.60;;;;;;6245155;28;20599;-74
2020/12/27 07:33:45;;;;;;;2.17;1.63;;;2.00;77.50;;;;;;6244859;28;20072;-74
2020/12/27 07:36:47;;;;;;;0.87;0.80;;;2.00;77.00;;;;;;6245499;28;20041;-75
2020/12/27 07:39:51;;;;;;;1.70;1.10;;;2.10;76.70;;;;;;6245788;28;20432;-76
2020/12/27 07:42:52;;;;;;;3.30;1.30;;;2.10;76.60;;;;;;6245347;28;20118;-74
2020/12/27 07:45:54;;;;;;;3.77;1.63;;;2.30;78.10;;;;;;6244449;28;20119;-74
2020/12/27 07:48:56;;;;;;;2.17;1.40;;;2.20;76.00;;;;;;6244978;28;20065;-74
2020/12/27 07:51:57;;;;;;;5.30;1.13;;;2.10;76.40;;;;;;6245827;28;20056;-74
2020/12/27 07:54:58;;;;;;;5.93;1.30;;;2.10;76.50;;;;;;6245072;28;20045;-74
2020/12/27 07:58:01;;;;;;;12.93;2.63;;;2.20;76.30;;;;;;6245264;28;20045;-74
2020/12/27 08:01:03;;;;;;;2.93;1.20;;;2.20;76.10;;;;;;6245313;28;20048;-74
2020/12/27 08:04:07;;;;;;;3.70;1.33;;;2.30;76.10;;;;;;6244517;28;20136;-74
2020/12/27 08:07:08;;;;;;;2.10;1.03;;;2.30;76.40;;;;;;6245545;28;20572;-75
2020/12/27 08:10:21;;;;;;;1.27;1.00;;;2.40;76.20;;;;;;6248320;28;20045;-74
2020/12/27 08:13:23;;;;;;;1.10;1.00;;;2.40;75.90;;;;;;6249651;28;20578;-75
2020/12/27 08:16:25;;;;;;;2.03;1.17;;;2.50;75.70;;;;;;6250095;28;20054;-74
2020/12/27 08:19:26;;;;;;;1.20;0.90;;;2.50;75.70;;;;;;6250199;28;20396;-74
2020/12/27 08:22:28;;;;;;;1.67;1.30;;;2.50;75.50;;;;;;6249097;28;20045;-74
2020/12/27 08:25:29;;;;;;;2.50;1.13;;;2.50;75.30;;;;;;6249372;28;20396;-74
2020/12/27 08:28:35;;;;;;;2.67;1.47;;;2.50;75.50;;;;;;6249581;28;20124;-75
2020/12/27 08:31:37;;;;;;;2.20;1.33;;;2.50;75.70;;;;;;6250138;28;20049;-74
2020/12/27 08:34:45;;;;;;;2.10;0.97;;;2.50;75.80;;;;;;6248815;28;20041;-74
2020/12/27 08:37:47;;;;;;;2.58;1.20;;;2.50;76.10;;;;;;6249644;28;20041;-74
2020/12/27 08:40:58;;;;;;;1.13;1.00;;;2.50;76.20;;;;;;6247060;28;20400;-75
2020/12/27 08:44:41;;;;;;;1.00;0.60;;;2.50;76.30;;;;;;6249904;28;20075;-75
2020/12/27 08:47:54;;;;;;;2.13;1.00;;;2.60;76.60;;;;;;6249538;28;20053;-74
2020/12/27 08:51:01;;;;;;;1.67;1.00;;;2.60;76.10;;;;;;6248951;28;20077;-74
2020/12/27 08:54:07;;;;;;;2.30;1.27;;;2.60;76.00;;;;;;6248685;28;20050;-74
2020/12/27 08:57:12;;;;;;;0.80;0.70;;;2.70;76.40;;;;;;6248595;28;20507;-74
2020/12/27 09:00:14;;;;;;;1.47;1.07;;;2.70;76.20;;;;;;6249426;28;20240;-74
2020/12/27 09:03:17;;;;;;;1.50;1.10;;;2.80;76.10;;;;;;6247942;28;20053;-74
2020/12/27 09:06:18;;;;;;;1.30;0.90;;;2.80;75.90;;;;;;6245668;28;20111;-74
2020/12/27 09:09:19;;;;;;;3.60;1.37;;;2.90;76.00;;;;;;6232763;28;20049;-74
2020/12/27 09:12:21;;;;;;;1.27;0.60;;;3.00;75.90;;;;;;6234908;28;20076;-76
2020/12/27 09:15:23;;;;;;;0.90;0.77;;;3.00;76.10;;;;;;6246924;28;20131;-75
2020/12/27 09:18:30;;;;;;;1.07;0.83;;;3.10;75.90;;;;;;6227409;28;20054;-74
2020/12/27 09:21:32;;;;;;;2.57;1.53;;;3.20;75.60;;;;;;6240565;28;20103;-74
2020/12/27 09:24:34;;;;;;;13.67;2.10;;;3.20;75.20;;;;;;6243515;28;20087;-74
2020/12/27 09:27:35;;;;;;;1.33;1.10;;;3.20;75.00;;;;;;6242827;28;20060;-74
2020/12/27 09:30:36;;;;;;;1.83;1.53;;;3.20;75.30;;;;;;6231823;28;20046;-74
2020/12/27 09:33:45;;;;;;;1.53;0.90;;;3.30;75.00;;;;;;6242389;28;20112;-74
2020/12/27 09:36:46;;;;;;;;;;;3.30;75.00;;;;;;6245489;28;20049;-74
2020/12/27 09:39:56;;;;;;;2.00;1.37;;;3.30;75.60;;;;;;6245344;28;20020;-74
2020/12/27 09:43:03;;;;;;;1.23;0.80;;;3.40;75.80;;;;;;6244863;28;20045;-74
2020/12/27 09:46:04;;;;;;;1.38;1.15;;;3.40;75.20;;;;;;6246001;28;20399;-75
2020/12/27 09:49:20;;;;;;;4.10;1.10;;;3.50;75.80;;;;;;6245253;28;20084;-74
2020/12/27 09:52:22;;;;;;;2.57;1.20;;;3.60;75.90;;;;;;6237761;28;20417;-75
2020/12/27 09:55:24;;;;;;;28.80;7.10;;;3.60;75.40;;;;;;6237274;28;20051;-74
2020/12/27 09:58:25;;;;;;;1.30;1.02;;;3.70;79.20;;;;;;6242226;28;20046;-75
2020/12/27 10:01:27;;;;;;;4.15;1.58;;;4.40;87.10;;;;;;6228355;28;20081;-75
2020/12/27 10:04:29;;;;;;;3.03;1.20;;;4.40;79.60;;;;;;6241236;28;20041;-75
2020/12/27 10:07:30;;;;;;;2.10;0.80;;;4.50;77.00;;;;;;6238731;28;20061;-74
2020/12/27 10:10:31;;;;;;;2.15;0.95;;;4.50;74.60;;;;;;6242282;28;20041;-75
2020/12/27 10:13:33;;;;;;;1.60;1.10;;;4.70;76.60;;;;;;6239729;28;20042;-75
2020/12/27 10:16:34;;;;;;;1.20;0.80;;;4.80;74.40;;;;;;6234504;28;20099;-75
2020/12/27 10:19:36;;;;;;;1.45;1.08;;;4.80;73.70;;;;;;6231318;28;20045;-75
2020/12/27 10:22:38;;;;;;;2.17;1.48;;;4.90;74.00;;;;;;6244414;28;20060;-74
2020/12/27 10:25:39;;;;;;;1.63;1.30;;;4.90;74.10;;;;;;6223924;28;20041;-74
2020/12/27 10:28:41;;;;;;;1.85;1.00;;;4.80;73.20;;;;;;6231156;28;20111;-74
2020/12/27 10:31:42;;;;;;;1.30;0.85;;;4.80;71.90;;;;;;6236846;28;20492;-74
2020/12/27 10:34:44;;;;;;;1.00;0.60;;;4.70;71.20;;;;;;6235485;28;20457;-74
2020/12/27 10:37:45;;;;;;;1.17;1.02;;;4.80;72.30;;;;;;6241960;28;20542;-74
2020/12/27 10:40:47;;;;;;;1.02;0.70;;;4.80;71.40;;;;;;6239703;28;20048;-74
2020/12/27 10:43:49;;;;;;;2.00;1.77;;;4.90;79.40;;;;;;6235373;28;20046;-73
2020/12/27 10:46:51;;;;;;;1.63;1.52;;;4.70;71.80;;;;;;6239707;28;20073;-75
2020/12/27 10:49:53;;;;;;;1.20;0.82;;;4.80;71.80;;;;;;6237200;28;20050;-75
2020/12/27 10:52:54;;;;;;;2.72;1.30;;;4.70;72.30;;;;;;6242168;28;20053;-76
2020/12/27 10:55:55;;;;;;;2.58;0.80;;;4.70;72.20;;;;;;6242972;28;20045;-75
2020/12/27 10:58:57;;;;;;;1.40;1.00;;;4.80;72.50;;;;;;6237426;28;20059;-75
2020/12/27 11:01:58;;;;;;;1.80;1.10;;;4.80;72.60;;;;;;6235299;28;20476;-75
2020/12/27 11:05:01;;;;;;;1.48;0.85;;;4.90;72.40;;;;;;6243172;28;20060;-74
2020/12/27 11:08:02;;;;;;;1.25;1.15;;;5.00;72.10;;;;;;6241045;28;20570;-75
2020/12/27 11:11:04;;;;;;;0.90;0.80;;;5.00;72.30;;;;;;6241559;28;20168;-75
2020/12/27 11:14:07;;;;;;;1.70;0.77;;;5.00;71.90;;;;;;6230464;28;20041;-75
2020/12/27 11:17:08;;;;;;;2.10;0.68;;;5.10;71.30;;;;;;6239392;28;20046;-75
2020/12/27 11:20:13;;;;;;;1.17;0.60;;;5.10;71.00;;;;;;6241122;28;20541;-74
2020/12/27 11:23:15;;;;;;;0.80;0.60;;;5.20;71.00;;;;;;6238118;28;20689;-74
2020/12/27 11:26:18;;;;;;;0.98;0.80;;;5.20;71.00;;;;;;6243406;28;20404;-75
2020/12/27 11:29:19;;;;;;;2.40;0.85;;;5.30;70.80;;;;;;6241544;28;20056;-75
2020/12/27 11:32:21;;;;;;;2.55;0.82;;;5.30;71.00;;;;;;6238896;28;20128;-75
2020/12/27 11:35:23;;;;;;;1.20;1.00;;;5.40;70.90;;;;;;6243925;28;20518;-74
2020/12/27 11:38:24;;;;;;;1.73;0.70;;;5.40;70.90;;;;;;6230012;28;20045;-74
2020/12/27 11:41:25;;;;;;;1.67;1.00;;;5.50;71.20;;;;;;6237799;28;20076;-75
2020/12/27 11:44:27;;;;;;;2.75;0.57;;;5.90;75.80;;;;;;6230370;28;20125;-74
2020/12/27 11:47:28;;;;;;;1.35;0.80;;;6.10;70.40;;;;;;6250693;28;20051;-74
2020/12/27 11:50:30;;;;;;;1.10;0.95;;;6.10;71.10;;;;;;6241316;28;20650;-75
2020/12/27 11:53:31;;;;;;;1.23;0.68;;;6.10;69.20;;;;;;6248733;28;20471;-74
2020/12/27 11:56:33;;;;;;;0.82;0.63;;;6.20;71.40;;;;;;6247162;28;20120;-74
2020/12/27 11:59:34;;;;;;;1.10;0.60;;;6.20;69.90;;;;;;6244675;28;20095;-74
2020/12/27 12:02:35;;;;;;;1.65;0.52;;;6.20;70.30;;;;;;6247796;28;20045;-74
2020/12/27 12:05:37;;;;;;;0.40;0.40;;;6.20;69.70;;;;;;6245674;28;20037;-75
2020/12/27 12:08:39;;;;;;;0.63;0.63;;;6.20;69.90;;;;;;6239541;28;20057;-74
2020/12/27 12:11:41;;;;;;;0.40;0.40;;;6.20;69.60;;;;;;6245724;28;20080;-73
2020/12/27 12:14:42;;;;;;;0.88;0.88;;;6.20;69.80;;;;;;6228422;28;22789;-75
2020/12/27 12:17:44;;;;;;;0.90;0.40;;;6.20;70.10;;;;;;6239485;28;20049;-75
2020/12/27 12:20:46;;;;;;;1.40;0.93;;;6.30;70.40;;;;;;6244705;28;20041;-75
2020/12/27 12:23:47;;;;;;;4.88;2.35;;;6.40;70.10;;;;;;6243412;28;20041;-75
2020/12/27 12:26:50;;;;;;;3.28;2.38;;;6.40;70.30;;;;;;6238094;28;20046;-76
2020/12/27 12:29:51;;;;;;;1.02;0.50;;;6.20;71.00;;;;;;6242207;28;20134;-75
2020/12/27 12:32:52;;;;;;;0.93;0.60;;;6.00;71.30;;;;;;6235374;28;20065;-74
2020/12/27 12:35:55;;;;;;;1.02;0.40;;;6.00;70.90;;;;;;6229612;28;20072;-75
2020/12/27 12:38:56;;;;;;;1.00;0.77;;;6.10;71.00;;;;;;6235341;28;20399;-75
2020/12/27 12:41:58;;;;;;;0.90;0.52;;;6.20;71.10;;;;;;6242819;28;20076;-75
2020/12/27 12:44:59;;;;;;;1.55;1.00;;;6.20;71.10;;;;;;6244181;28;20042;-74
2020/12/27 12:48:00;;;;;;;0.93;0.60;;;6.20;70.40;;;;;;6233744;28;20156;-75
2020/12/27 12:51:03;;;;;;;1.10;0.50;;;6.20;70.70;;;;;;6233889;28;20144;-74
2020/12/27 12:54:04;;;;;;;1.10;0.75;;;6.20;70.70;;;;;;6244261;28;20053;-75
2020/12/27 12:57:06;;;;;;;0.50;0.50;;;6.30;70.70;;;;;;6244883;28;20100;-75
2020/12/27 13:00:07;;;;;;;0.43;0.43;;;6.30;70.50;;;;;;6239571;28;20144;-74
2020/12/27 13:03:09;;;;;;;0.73;0.55;;;6.40;70.70;;;;;;6239366;28;20100;-74
2020/12/27 13:06:13;;;;;;;1.15;0.75;;;6.40;70.20;;;;;;6245501;28;20117;-74
2020/12/27 13:09:14;;;;;;;0.60;0.40;;;6.50;70.10;;;;;;6224987;28;20054;-74
2020/12/27 13:12:15;;;;;;;0.43;0.43;;;6.50;70.20;;;;;;6246233;28;20153;-75
2020/12/27 13:15:16;;;;;;;0.57;0.43;;;6.50;69.90;;;;;;6236822;28;20057;-74
2020/12/27 13:18:18;;;;;;;0.55;0.30;;;6.60;69.80;;;;;;6245701;28;20049;-74
2020/12/27 13:21:20;;;;;;;1.60;0.40;;;6.70;70.00;;;;;;6238436;28;20045;-74
2020/12/27 13:24:22;;;;;;;1.60;0.60;;;6.80;69.50;;;;;;6240822;28;20050;-75
2020/12/27 13:27:23;;;;;;;0.60;0.30;;;6.80;69.50;;;;;;6241811;28;20057;-76
2020/12/27 13:30:24;;;;;;;1.00;0.47;;;6.90;69.50;;;;;;6237923;28;20561;-74
2020/12/27 13:33:26;;;;;;;0.32;0.32;;;6.90;70.20;;;;;;6248996;28;20098;-75
2020/12/27 13:36:28;;;;;;;0.63;0.40;;;6.90;70.00;;;;;;6245486;28;20507;-75
2020/12/27 13:39:29;;;;;;;0.77;0.47;;;6.90;70.10;;;;;;6243893;28;20053;-77
2020/12/27 13:42:30;;;;;;;3.15;0.60;;;7.00;70.30;;;;;;6240442;28;20175;-74
2020/12/27 13:45:32;;;;;;;0.57;0.40;;;6.90;70.40;;;;;;6245346;28;20438;-77
2020/12/27 13:48:33;;;;;;;0.80;0.30;;;7.00;70.40;;;;;;6244839;28;20518;-76
2020/12/27 13:51:35;;;;;;;0.28;0.22;;;7.00;70.10;;;;;;6245827;28;20080;-75
2020/12/27 13:54:37;;;;;;;0.40;0.40;;;7.00;70.70;;;;;;6244900;28;20685;-75
2020/12/27 13:57:38;;;;;;;0.82;0.55;;;7.00;71.00;;;;;;6245089;28;20098;-75
2020/12/27 14:00:39;;;;;;;1.10;0.50;;;7.00;71.20;;;;;;6245499;28;20051;-76
2020/12/27 14:03:40;;;;;;;1.30;0.63;;;7.00;71.50;;;;;;6242885;28;20041;-76
2020/12/27 14:06:43;;;;;;;0.75;0.47;;;7.00;71.50;;;;;;6233239;28;20496;-77
2020/12/27 14:09:45;;;;;;;1.98;0.93;;;7.00;71.60;;;;;;6239891;28;20042;-76
2020/12/27 14:12:46;;;;;;;0.57;0.57;;;7.10;71.90;;;;;;6239463;28;20042;-76
2020/12/27 14:15:47;;;;;;;0.28;0.28;;;7.10;71.70;;;;;;6220819;28;20045;-77
2020/12/27 14:18:49;;;;;;;0.70;0.60;;;7.10;71.30;;;;;;6242984;28;20067;-77
2020/12/27 14:21:54;;;;;;;1.00;0.60;;;7.10;71.20;;;;;;6245618;28;20095;-77
2020/12/27 14:24:55;;;;;;;0.93;0.40;;;7.20;71.20;;;;;;6244965;28;20042;-77
2020/12/27 14:27:57;;;;;;;1.17;0.80;;;7.10;71.20;;;;;;6242531;28;20041;-76
2020/12/27 14:30:58;;;;;;;0.60;0.50;;;7.10;71.30;;;;;;6242324;28;20069;-77
2020/12/27 14:33:59;;;;;;;0.85;0.80;;;7.10;71.90;;;;;;6243815;28;20065;-77
2020/12/27 14:37:02;;;;;;;0.52;0.52;;;7.00;72.20;;;;;;6243519;28;20414;-77
2020/12/27 14:40:03;;;;;;;0.88;0.57;;;7.10;71.70;;;;;;6238739;28;20080;-77
2020/12/27 14:43:04;;;;;;;0.75;0.40;;;7.10;71.90;;;;;;6244159;28;20144;-77
2020/12/27 14:46:06;;;;;;;0.45;0.43;;;7.10;71.80;;;;;;6242797;28;20141;-77
2020/12/27 14:49:07;;;;;;;1.30;0.85;;;7.10;72.10;;;;;;6242990;28;20110;-78
2020/12/27 14:52:09;;;;;;;2.15;1.10;;;7.10;71.50;;;;;;6244351;28;20428;-77
2020/12/27 14:55:10;;;;;;;2.08;1.85;;;7.10;72.10;;;;;;6243342;28;20507;-76
2020/12/27 14:58:12;;;;;;;3.88;2.65;;;7.10;72.70;;;;;;6243743;28;20095;-76
2020/12/27 15:01:13;;;;;;;4.50;2.83;;;7.00;74.20;;;;;;6243630;28;20124;-77
2020/12/27 15:04:14;;;;;;;2.53;1.92;;;7.00;76.50;;;;;;6243398;28;20136;-77
2020/12/27 15:07:16;;;;;;;4.75;3.45;;;6.90;76.90;;;;;;6243967;28;20574;-76
2020/12/27 15:10:18;;;;;;;3.42;2.47;;;6.80;77.10;;;;;;6243339;28;20045;-77
2020/12/27 15:13:19;;;;;;;5.13;3.08;;;6.70;78.20;;;;;;6233203;28;20522;-77
2020/12/27 15:16:20;;;;;;;4.25;2.90;;;6.60;78.30;;;;;;6242689;28;20096;-75
2020/12/27 15:19:22;;;;;;;6.38;4.00;;;6.60;78.70;;;;;;6244253;28;20511;-76
2020/12/27 15:22:24;;;;;;;7.65;5.82;;;6.60;79.00;;;;;;6240105;28;20754;-76
2020/12/27 15:25:25;;;;;;;6.97;6.20;;;6.50;79.50;;;;;;6242714;28;20065;-76
2020/12/27 15:28:26;;;;;;;6.38;5.13;;;6.50;80.00;;;;;;6243081;28;20604;-76
2020/12/27 15:31:28;;;;;;;9.10;5.72;;;6.40;80.00;;;;;;6229727;28;20050;-76
2020/12/27 15:34:29;;;;;;;8.98;5.30;;;6.40;80.00;;;;;;6218303;28;20096;-76
2020/12/27 15:37:31;;;;;;;5.97;5.35;;;6.40;80.30;;;;;;6218728;28;20045;-76
2020/12/27 15:40:33;;;;;;;7.05;3.97;;;6.30;80.80;;;;;;6242047;28;20682;-76
2020/12/27 15:43:34;;;;;;;4.63;3.63;;;6.20;80.70;;;;;;6243765;28;20121;-76
2020/12/27 15:46:35;;;;;;;4.35;3.45;;;6.30;80.80;;;;;;6243206;28;20044;-77
2020/12/27 15:49:37;;;;;;;3.20;2.42;;;6.20;80.70;;;;;;6244505;28;20124;-77
2020/12/27 15:52:40;;;;;;;3.00;2.08;;;6.20;80.40;;;;;;6219759;28;20080;-76
2020/12/27 15:55:41;;;;;;;2.75;2.53;;;6.20;79.70;;;;;;6242869;28;20053;-76
2020/12/27 15:58:42;;;;;;;7.47;2.40;;;6.20;77.70;;;;;;6243072;28;20124;-77
2020/12/27 16:01:45;;;;;;;1.73;1.40;;;6.20;77.50;;;;;;6239838;28;20057;-76
2020/12/27 16:04:47;;;;;;;1.00;0.95;;;6.20;73.80;;;;;;6242815;28;20041;-76